Time;durP1;ratioP1;P1;durP2;ratioP2;P2;SDS_P1;SDS_P2;PMS_P1;PMS_P2;Temp;Humidity;BMP_temperature;BMP_pressure;BME280_temperature;BME280_humidity;BME280_pressure;Samples;Min_cycle;Max_cycle;Signal;HPM_P1;HPM_P2
2023/09/20 00:02:45;;;;;;;2.92;1.20;;;;;;;-145.68;66.97;73325.91;10449182;28;20227;-74
2023/09/20 00:07:46;;;;;;;3.00;1.17;;;;;;;-145.68;66.71;73345.88;10434534;28;20618;-74
2023/09/20 00:12:46;;;;;;;1.92;1.27;;;;;;;-145.68;67.17;73359.88;10448792;28;20200;-74
2023/09/20 00:17:48;;;;;;;2.90;1.40;;;;;;;-145.68;68.18;73387.88;10431323;28;20192;-74
2023/09/20 00:22:50;;;;;;;3.88;1.73;;;;;;;-145.68;67.63;73355.88;10451129;28;20552;-74
2023/09/20 00:27:50;;;;;;;2.90;1.67;;;;;;;-145.68;68.83;73389.88;10448615;28;20641;-74
2023/09/20 00:32:51;;;;;;;2.53;1.30;;;;;;;-145.68;68.62;73365.88;10430625;28;20245;-74
2023/09/20 00:37:52;;;;;;;5.15;1.50;;;;;;;-145.68;69.05;73383.88;10448279;28;20202;-74
2023/09/20 00:42:57;;;;;;;5.15;1.40;;;;;;;-145.68;70.37;73395.84;10449752;28;20227;-74
2023/09/20 00:47:58;;;;;;;3.72;1.25;;;;;;;-145.68;70.02;73377.88;10448280;28;20335;-74
2023/09/20 00:52:59;;;;;;;4.03;1.42;;;;;;;-145.68;70.61;73385.88;10431278;28;20653;-74
2023/09/20 00:58:04;;;;;;;6.05;1.40;;;;;;;-145.68;70.77;73373.88;10413194;28;20195;-74
2023/09/20 01:03:06;;;;;;;4.18;1.63;;;;;;;-145.68;71.22;73387.88;10429568;28;20267;-74
2023/09/20 01:08:07;;;;;;;2.28;1.35;;;;;;;-145.68;72.44;73399.84;10446542;28;20275;-74
2023/09/20 01:13:09;;;;;;;2.05;1.30;;;;;;;-145.68;72.67;73395.84;10413046;28;20192;-74
2023/09/20 01:18:09;;;;;;;7.05;1.60;;;;;;;-145.68;73.75;73427.84;10429033;28;20268;-74
2023/09/20 01:23:10;;;;;;;5.78;2.20;;;;;;;-145.68;73.94;73401.84;10430725;28;20226;-74
2023/09/20 01:28:10;;;;;;;2.40;1.25;;;;;;;-145.68;73.26;73389.88;10429045;28;20725;-74
2023/09/20 01:33:12;;;;;;;2.17;1.40;;;;;;;-145.68;72.82;73375.88;10428211;28;20202;-74
2023/09/20 01:38:13;;;;;;;2.35;1.00;;;;;;;-145.68;72.68;73373.88;10430467;28;20548;-74
2023/09/20 01:43:13;;;;;;;5.45;1.30;;;;;;;-145.68;73.59;73385.88;10446380;28;20640;-75
2023/09/20 01:48:15;;;;;;;3.47;1.60;;;;;;;-145.68;74.07;73389.88;10428190;28;20246;-74
2023/09/20 01:53:15;;;;;;;2.13;1.20;;;;;;;-145.68;74.68;73401.84;10432851;28;20261;-74
2023/09/20 01:58:16;;;;;;;1.55;1.02;;;;;;;-145.68;74.93;73393.84;10456245;28;20200;-74
2023/09/20 02:03:17;;;;;;;3.25;1.45;;;;;;;-145.68;74.85;73409.84;10436653;28;20222;-75
2023/09/20 02:08:17;;;;;;;2.90;1.33;;;;;;;-145.68;75.18;73413.84;10453624;28;20195;-74
2023/09/20 02:13:19;;;;;;;4.22;1.50;;;;;;;-145.68;75.86;73421.84;10435923;28;20194;-74
2023/09/20 02:18:19;;;;;;;4.70;1.50;;;;;;;-145.68;76.71;73425.84;10438231;28;20191;-74
2023/09/20 02:23:19;;;;;;;3.90;1.30;;;;;;;-145.68;76.80;73423.84;10452934;28;20224;-74
2023/09/20 02:28:20;;;;;;;1.30;1.20;;;;;;;-145.68;77.27;73439.84;10435564;28;20190;-74
2023/09/20 02:33:21;;;;;;;1.95;1.63;;;;;;;-145.68;78.23;73445.81;10451305;28;20195;-74
2023/09/20 02:38:21;;;;;;;3.17;1.70;;;;;;;-145.68;79.01;73453.81;10455834;28;20218;-74
2023/09/20 02:43:21;;;;;;;2.22;1.40;;;;;;;-145.68;78.73;73449.81;10452281;28;20561;-74
2023/09/20 02:48:22;;;;;;;3.38;1.75;;;;;;;-145.68;78.96;73471.81;10434370;28;20232;-74
2023/09/20 02:53:22;;;;;;;1.38;1.27;;;;;;;-145.68;78.22;73457.81;10434295;28;20195;-74
2023/09/20 02:58:23;;;;;;;2.85;1.40;;;;;;;-145.68;78.85;73453.81;10454334;28;20193;-74
2023/09/20 03:03:23;;;;;;;4.40;1.52;;;;;;;-145.68;78.46;73451.81;10451458;28;20216;-74
2023/09/20 03:08:25;;;;;;;2.72;1.38;;;;;;;-145.68;77.63;73425.84;10433659;28;20195;-74
2023/09/20 03:13:26;;;;;;;1.20;1.10;;;;;;;-145.68;75.87;73387.88;10436145;28;20187;-74
2023/09/20 03:18:27;;;;;;;3.13;1.45;;;;;;;-145.68;74.78;73383.88;10433045;28;20242;-74
2023/09/20 03:23:32;;;;;;;2.38;1.35;;;;;;;-145.68;74.78;73395.84;10432852;28;20291;-74
2023/09/20 03:28:33;;;;;;;3.65;1.40;;;;;;;-145.68;74.80;73395.84;10450086;28;20204;-74
2023/09/20 03:33:34;;;;;;;3.05;1.48;;;;;;;-145.68;75.15;73413.84;10433650;28;20191;-74
2023/09/20 03:38:35;;;;;;;2.58;1.30;;;;;;;-145.68;75.05;73391.84;10432316;28;20187;-74
2023/09/20 03:43:37;;;;;;;2.55;1.40;;;;;;;-145.68;74.05;73347.88;10431242;28;20261;-74
2023/09/20 03:48:38;;;;;;;6.20;1.55;;;;;;;-145.68;73.07;73333.91;10431048;28;20714;-74
2023/09/20 03:53:39;;;;;;;3.92;1.63;;;;;;;-145.68;72.78;73321.91;10433242;28;20191;-74
2023/09/20 03:58:40;;;;;;;3.40;1.42;;;;;;;-145.68;72.13;73299.91;10431161;28;20656;-74
2023/09/20 04:03:42;;;;;;;2.83;1.60;;;;;;;-145.68;70.60;73275.94;10418376;28;20664;-74
2023/09/20 04:08:43;;;;;;;2.95;1.40;;;;;;;-145.68;71.21;73297.91;10449207;28;20188;-74
2023/09/20 04:13:43;;;;;;;2.13;1.15;;;;;;;-145.68;70.74;73289.94;10430736;28;20192;-74
2023/09/20 04:18:44;;;;;;;6.38;1.50;;;;;;;-145.68;70.14;73291.94;10430820;28;20221;-74
2023/09/20 04:23:44;;;;;;;2.75;1.30;;;;;;;-145.68;71.39;73311.91;10430501;28;20216;-74
2023/09/20 04:28:48;;;;;;;3.63;1.23;;;;;;;-145.68;71.75;73317.91;10427280;28;20188;-74
2023/09/20 04:33:49;;;;;;;4.65;1.45;;;;;;;-145.68;71.54;73309.91;10433567;28;20530;-74
2023/09/20 04:38:50;;;;;;;8.55;1.67;;;;;;;-145.68;71.65;73317.91;10430392;28;20279;-74
2023/09/20 04:43:51;;;;;;;3.17;1.45;;;;;;;-145.68;72.08;73327.91;10429489;28;20216;-74
2023/09/20 04:48:51;;;;;;;3.15;1.45;;;;;;;-145.68;72.87;73337.91;10433896;28;20235;-74
2023/09/20 04:53:52;;;;;;;2.42;1.45;;;;;;;-145.68;72.80;73343.88;10429726;28;20192;-74
2023/09/20 04:58:53;;;;;;;2.50;1.60;;;;;;;-145.68;74.06;73371.88;10412619;28;20195;-74
2023/09/20 05:03:53;;;;;;;6.95;2.00;;;;;;;-145.68;73.67;73351.88;10429306;28;20226;-74
2023/09/20 05:08:54;;;;;;;3.60;1.88;;;;;;;-145.68;73.24;73349.88;10433005;28;20195;-74
2023/09/20 05:13:54;;;;;;;4.93;1.73;;;;;;;-145.68;72.99;73339.91;10412382;28;20628;-74
2023/09/20 05:18:55;;;;;;;2.40;1.50;;;;;;;-145.68;72.34;73323.91;10429224;28;20761;-74
2023/09/20 05:23:55;;;;;;;4.70;1.60;;;;;;;-145.68;70.90;73311.91;10446619;28;20683;-74
2023/09/20 05:28:58;;;;;;;2.42;1.60;;;;;;;-145.68;70.98;73315.91;10449927;28;20286;-74
2023/09/20 05:33:58;;;;;;;2.53;1.60;;;;;;;-145.68;70.41;73323.91;10446069;28;20196;-74
2023/09/20 05:38:59;;;;;;;3.70;2.03;;;;;;;-145.68;70.75;73313.91;10446498;28;20199;-74
2023/09/20 05:43:59;;;;;;;4.68;1.52;;;;;;;-145.68;70.81;73323.91;10445354;28;20223;-74
2023/09/20 05:49:00;;;;;;;3.30;1.45;;;;;;;-145.68;70.93;73315.91;10450157;28;20240;-74
2023/09/20 05:54:00;;;;;;;1.83;1.40;;;;;;;-145.68;70.71;73299.91;10445901;28;20194;-74
2023/09/20 05:59:01;;;;;;;6.70;2.03;;;;;;;-145.68;69.65;73275.94;10445978;28;20206;-74
2023/09/20 06:04:02;;;;;;;4.82;1.58;;;;;;;-145.68;68.72;73245.97;10447683;28;20227;-74
2023/09/20 06:09:04;;;;;;;2.42;1.45;;;;;;;-145.68;66.00;73148.03;10447390;28;20227;-74
2023/09/20 06:14:05;;;;;;;13.32;1.65;;;;;;;-145.68;62.39;73034.09;10445240;28;20274;-75
2023/09/20 06:19:05;;;;;;;5.32;1.33;;;;;;;-145.68;61.51;73058.09;10445335;28;20204;-74
2023/09/20 06:24:11;;;;;;;3.20;1.75;;;;;;;-145.68;61.35;73030.09;10449338;28;20313;-74
2023/09/20 06:29:12;;;;;;;2.72;1.60;;;;;;;-145.68;62.09;73068.06;10444725;28;20287;-74
2023/09/20 06:34:17;;;;;;;3.38;1.73;;;;;;;-145.68;62.72;73148.03;10445060;28;20199;-74
2023/09/20 06:39:18;;;;;;;4.68;1.80;;;;;;;-145.68;62.71;73142.03;10431011;28;20191;-74
2023/09/20 06:44:19;;;;;;;6.40;1.70;;;;;;;-145.68;63.48;73130.03;10455897;28;20192;-75
2023/09/20 06:49:19;;;;;;;4.38;1.40;;;;;;;-145.68;62.92;73074.06;10450316;28;20250;-74
2023/09/20 06:54:19;;;;;;;2.72;1.25;;;;;;;-145.68;60.82;72994.13;10452037;28;20191;-75
2023/09/20 06:59:20;;;;;;;4.03;1.50;;;;;;;-145.68;60.15;72972.16;10451984;28;20671;-74
2023/09/20 07:04:21;;;;;;;6.40;1.60;;;;;;;-145.68;59.94;73010.13;10453024;28;20192;-75
2023/09/20 07:09:22;;;;;;;2.97;1.70;;;;;;;-145.68;59.25;72976.16;10451183;28;20196;-75
2023/09/20 07:14:23;;;;;;;5.65;1.65;;;;;;;-145.68;57.49;72860.22;10451683;28;20555;-75
2023/09/20 07:19:27;;;;;;;6.60;1.50;;;;;;;-145.68;58.65;72986.13;10450333;28;20200;-74
2023/09/20 07:24:27;;;;;;;4.63;1.50;;;;;;;-145.68;58.60;72928.19;10454922;28;20572;-75
2023/09/20 07:29:27;;;;;;;3.28;1.25;;;;;;;-145.68;58.70;72922.19;10450622;28;20196;-74
2023/09/20 07:34:32;;;;;;;5.55;1.40;;;;;;;-145.68;58.10;72886.22;10432959;28;20191;-75
2023/09/20 07:39:33;;;;;;;4.68;1.95;;;;;;;-145.68;57.76;72910.19;10437341;28;20306;-75
2023/09/20 07:44:35;;;;;;;4.25;1.88;;;;;;;-145.68;56.70;72864.22;10449708;28;20206;-74
2023/09/20 07:49:36;;;;;;;3.28;1.30;;;;;;;-145.68;57.30;72912.19;10422577;28;20256;-74
2023/09/20 07:54:36;;;;;;;5.18;1.58;;;;;;;-145.68;55.86;72784.28;10411409;28;20277;-75
2023/09/20 07:59:36;;;;;;;3.05;1.58;;;;;;;-145.68;54.34;72750.31;10406922;28;20216;-75
2023/09/20 08:04:37;;;;;;;4.60;1.48;;;;;;;-145.68;53.74;72688.38;10374054;28;20687;-75
2023/09/20 08:09:37;;;;;;;4.18;1.67;;;;;;;-145.68;53.69;72648.41;10406250;28;20283;-75
2023/09/20 08:14:38;;;;;;;4.13;1.67;;;;;;;-145.68;54.55;72768.31;10389597;28;20193;-75
2023/09/20 08:19:38;;;;;;;6.05;1.75;;;;;;;-145.68;54.70;72734.31;10406216;28;20227;-75
2023/09/20 09:02:00;;;;;;;4.10;1.40;;;;;;;-145.68;49.43;72484.53;10405426;28;20220;-75
2023/09/20 09:07:00;;;;;;;2.78;1.40;;;;;;;-145.68;48.31;72414.59;10405658;28;20226;-75
2023/09/20 09:12:00;;;;;;;2.65;1.40;;;;;;;-145.68;49.97;72542.50;10404801;28;20196;-75
2023/09/20 09:17:01;;;;;;;5.20;1.33;;;;;;;-145.68;48.73;72462.56;10409704;28;20188;-75
2023/09/20 09:22:02;;;;;;;5.78;1.52;;;;;;;-145.68;47.70;72400.59;10404299;28;20323;-75
2023/09/20 09:27:08;;;;;;;2.08;1.25;;;;;;;-145.68;47.82;72428.59;10403496;28;20630;-73
2023/09/20 09:32:08;;;;;;;4.68;1.40;;;;;;;-145.68;46.81;72326.69;10404860;28;20223;-75
2023/09/20 09:37:10;;;;;;;2.15;1.10;;;;;;;-145.68;46.54;72332.66;10408668;28;20211;-75
2023/09/20 09:42:11;;;;;;;3.33;1.40;;;;;;;-145.68;46.99;72382.63;10404672;28;20311;-75
2023/09/20 09:47:11;;;;;;;2.03;1.10;;;;;;;-145.68;46.76;72500.53;10409730;28;20610;-74
2023/09/20 09:52:11;;;;;;;1.70;1.30;;;;;;;-145.68;47.01;72386.63;10414728;28;20675;-75
2023/09/20 09:57:12;;;;;;;1.95;0.90;;;;;;;-145.68;44.47;72292.72;10445933;28;20552;-73
2023/09/20 10:02:18;;;;;;;3.78;1.02;;;;;;;-145.68;43.79;72254.75;10445562;28;20220;-73
2023/09/20 10:07:22;;;;;;;2.92;1.48;;;;;;;-145.68;42.42;72078.91;10444975;28;20678;-73
2023/09/20 10:12:23;;;;;;;4.60;1.15;;;;;;;-145.68;42.96;72112.88;10450340;28;20194;-73
2023/09/20 10:17:29;;;;;;;1.98;1.27;;;;;;;-145.68;45.13;72290.72;10435637;28;20202;-73
2023/09/20 10:22:31;;;;;;;3.42;1.33;;;;;;;-145.68;44.80;72182.81;10435619;28;20292;-73
2023/09/20 10:27:31;;;;;;;1.85;1.45;;;;;;;-145.68;46.04;72264.72;10435310;28;20583;-75
2023/09/20 10:32:34;;;;;;;3.97;1.65;;;;;;;-145.68;47.92;72354.66;10456476;28;20192;-75
2023/09/20 10:37:37;;;;;;;2.75;1.40;;;;;;;-145.68;46.87;72316.69;10452704;28;20202;-73
2023/09/20 10:42:50;;;;;;;2.85;1.55;;;;;;;-145.68;45.22;72222.78;10452156;28;20393;-75
2023/09/20 10:47:52;;;;;;;3.40;1.73;;;;;;;-145.68;47.29;72262.72;10451465;28;20240;-73
2023/09/20 10:52:54;;;;;;;2.28;1.65;;;;;;;-145.68;44.25;72042.94;10438376;28;20222;-73
2023/09/20 10:57:56;;;;;;;2.75;1.42;;;;;;;-145.68;44.19;72008.97;10433962;28;20196;-73
2023/09/20 11:02:57;;;;;;;4.22;1.40;;;;;;;-145.68;46.21;72198.78;10433633;28;20219;-73
2023/09/20 11:08:03;;;;;;;2.00;1.50;;;;;;;-145.68;45.95;72244.75;10453156;28;20195;-73
2023/09/20 11:13:06;;;;;;;2.42;1.38;;;;;;;-145.68;44.35;72080.91;10435613;28;20337;-73
2023/09/20 11:18:07;;;;;;;3.03;1.60;;;;;;;-145.68;43.68;72022.97;10451193;28;20199;-73
2023/09/20 11:23:09;;;;;;;3.70;1.40;;;;;;;-145.68;43.84;72008.97;10449488;28;20219;-73
2023/09/20 11:28:10;;;;;;;2.33;1.30;;;;;;;-145.68;44.57;72176.81;10454513;28;20609;-73
2023/09/20 11:33:27;;;;;;;2.25;1.35;;;;;;;-145.68;44.20;72070.91;10432339;28;20191;-73
2023/09/20 11:38:28;;;;;;;3.83;1.40;;;;;;;-145.68;43.68;72072.91;10448144;28;20203;-73
2023/09/20 11:43:30;;;;;;;8.32;1.50;;;;;;;-145.68;43.49;72012.97;10431892;28;20269;-73
2023/09/20 11:48:31;;;;;;;1.23;1.10;;;;;;;-145.68;41.78;71897.09;10453890;28;20240;-73
2023/09/20 11:53:32;;;;;;;3.85;1.27;;;;;;;-145.68;42.04;71897.09;10432107;28;20557;-73
2023/09/20 11:58:36;;;;;;;2.60;1.42;;;;;;;-145.68;42.22;71911.06;10449744;28;20207;-73
2023/09/20 12:03:37;;;;;;;2.50;0.95;;;;;;;-145.68;43.29;72098.88;10415060;28;20215;-73
2023/09/20 12:08:37;;;;;;;2.72;1.30;;;;;;;-145.68;43.96;72110.88;10453184;28;20718;-73
2023/09/20 12:13:38;;;;;;;7.93;1.60;;;;;;;-145.68;44.28;72186.81;10431021;28;20245;-73
2023/09/20 12:18:38;;;;;;;2.80;1.15;;;;;;;-145.68;44.67;72128.84;10448402;28;20555;-73
2023/09/20 12:23:39;;;;;;;2.92;1.30;;;;;;;-145.68;44.79;72170.81;10448660;28;20224;-73
2023/09/20 12:28:39;;;;;;;2.80;1.48;;;;;;;-145.68;44.06;72082.91;10451989;28;20727;-73
2023/09/20 12:33:40;;;;;;;2.85;1.70;;;;;;;-145.68;42.75;71963.03;10447953;28;20219;-73
2023/09/20 12:38:40;;;;;;;3.17;1.85;;;;;;;-145.68;42.15;71925.06;10447782;28;20192;-73
2023/09/20 12:43:41;;;;;;;1.60;1.10;;;;;;;-145.68;42.48;72020.97;10451256;28;20239;-74
2023/09/20 12:48:44;;;;;;;2.65;0.98;;;;;;;-145.68;42.19;71945.03;10447617;28;20236;-73
2023/09/20 12:53:44;;;;;;;2.72;1.25;;;;;;;-145.68;42.15;71911.06;10446779;28;20700;-73
2023/09/20 12:58:45;;;;;;;2.88;1.40;;;;;;;-145.68;42.12;71989.00;10444132;28;20204;-73
2023/09/20 13:03:45;;;;;;;2.17;1.38;;;;;;;-145.68;43.53;72036.94;10455456;28;20220;-73
2023/09/20 13:08:45;;;;;;;3.85;1.40;;;;;;;-145.68;42.54;71913.06;10446549;28;20184;-73
2023/09/20 13:13:47;;;;;;;2.83;1.30;;;;;;;-145.68;41.10;71851.13;10446051;28;20565;-74
2023/09/20 13:18:47;;;;;;;5.38;1.52;;;;;;;-145.68;40.73;71841.13;10452211;28;20583;-74
2023/09/20 13:23:47;;;;;;;2.58;1.30;;;;;;;-145.68;40.98;71865.13;10452625;28;20223;-74
2023/09/20 13:28:49;;;;;;;1.05;0.95;;;;;;;-145.68;41.77;71901.09;10445169;28;20199;-74
2023/09/20 13:33:50;;;;;;;4.32;1.35;;;;;;;-145.68;41.30;71925.06;10440784;28;20188;-73
2023/09/20 13:38:50;;;;;;;5.05;1.27;;;;;;;-145.68;42.99;72024.97;10407891;28;20492;-74
2023/09/20 13:43:51;;;;;;;3.58;1.10;;;;;;;-145.68;42.24;71998.97;10428069;28;20231;-74
2023/09/20 13:48:51;;;;;;;2.72;1.17;;;;;;;-145.68;41.74;71931.06;10443551;28;20309;-74
2023/09/20 13:53:51;;;;;;;4.28;0.95;;;;;;;-145.68;41.37;71927.06;10427980;28;20188;-74
2023/09/20 13:58:54;;;;;;;2.88;1.10;;;;;;;-145.68;41.26;71897.09;10446316;28;20593;-73
2023/09/20 14:03:54;;;;;;;1.65;1.10;;;;;;;-145.68;41.34;71907.06;10448209;28;20223;-74
2023/09/20 14:08:54;;;;;;;3.45;1.17;;;;;;;-145.68;41.23;71863.13;10427919;28;20195;-74
2023/09/20 14:13:55;;;;;;;3.45;1.10;;;;;;;-145.68;41.36;71943.03;10426770;28;20191;-74
2023/09/20 14:18:55;;;;;;;1.83;1.17;;;;;;;-145.68;41.86;71937.03;10431861;28;20200;-74
2023/09/20 14:23:58;;;;;;;3.50;1.10;;;;;;;-145.68;41.08;71881.09;10425879;28;20269;-74
2023/09/20 14:28:59;;;;;;;2.33;1.25;;;;;;;-145.68;40.76;71825.16;10444727;28;20234;-73
2023/09/20 14:34:00;;;;;;;3.20;1.13;;;;;;;-145.68;39.75;71737.25;10426849;28;20286;-74
2023/09/20 14:39:00;;;;;;;1.77;0.90;;;;;;;-145.68;38.65;71639.34;10448738;28;20206;-73
2023/09/20 14:44:04;;;;;;;1.30;1.20;;;;;;;-145.68;38.69;71623.38;10444380;28;20227;-74
2023/09/20 14:49:04;;;;;;;1.65;1.10;;;;;;;-145.68;37.40;71541.47;10444500;28;20370;-74
2023/09/20 14:54:05;;;;;;;2.97;1.10;;;;;;;-145.68;38.75;71613.38;10443892;28;20184;-74
2023/09/20 14:59:05;;;;;;;1.40;0.98;;;;;;;-145.68;38.66;71621.38;10451299;28;20287;-74
2023/09/20 15:04:06;;;;;;;2.20;1.13;;;;;;;-145.68;37.35;71521.47;10446723;28;20692;-74
2023/09/20 15:09:08;;;;;;;1.52;1.00;;;;;;;-145.68;36.08;71417.59;10451594;28;20814;-74
2023/09/20 15:14:10;;;;;;;2.78;1.00;;;;;;;-145.68;37.41;71589.41;10448788;28;20191;-73
2023/09/20 15:19:11;;;;;;;1.30;0.93;;;;;;;-145.68;37.97;71679.31;10451488;28;20192;-74
2023/09/20 15:24:11;;;;;;;11.95;10.55;;;;;;;-145.68;37.42;71565.44;10450643;28;20284;-74
2023/09/20 15:29:16;;;;;;;2.47;1.20;;;;;;;-145.68;37.02;71549.44;10432981;28;20219;-74
2023/09/20 15:34:17;;;;;;;2.15;1.23;;;;;;;-145.68;36.87;71571.44;10450898;28;20279;-73
2023/09/20 15:39:18;;;;;;;3.67;2.05;;;;;;;-145.68;37.06;71567.44;10450057;28;20188;-74
2023/09/20 15:44:18;;;;;;;1.50;1.30;;;;;;;-145.68;36.54;71569.44;10449937;28;20675;-74
2023/09/20 15:49:19;;;;;;;5.28;2.42;;;;;;;-145.68;36.85;71565.44;10449965;28;20247;-74
2023/09/20 15:54:19;;;;;;;3.40;1.25;;;;;;;-145.68;36.56;71527.47;10450059;28;20200;-74
2023/09/20 15:59:20;;;;;;;3.10;1.33;;;;;;;-145.68;38.12;71657.34;10449385;28;20273;-74
2023/09/20 16:04:20;;;;;;;1.65;1.15;;;;;;;-145.68;40.61;71937.03;10449772;28;20222;-74
2023/09/20 16:09:22;;;;;;;1.40;1.20;;;;;;;-145.68;42.27;72056.94;10448599;28;20249;-74
2023/09/20 16:14:23;;;;;;;1.13;1.05;;;;;;;-145.68;43.70;72128.84;10449034;28;20192;-74
2023/09/20 16:19:24;;;;;;;2.45;1.10;;;;;;;-145.68;44.20;72148.84;10448868;28;20695;-74
2023/09/20 16:24:24;;;;;;;2.80;1.30;;;;;;;-145.68;45.23;72198.78;10448522;28;20579;-74
2023/09/20 16:29:25;;;;;;;1.27;1.17;;;;;;;-145.68;45.78;72228.75;10448681;28;20192;-74
2023/09/20 16:34:27;;;;;;;2.47;1.23;;;;;;;-145.68;46.69;72250.75;10448181;28;20188;-74
2023/09/20 16:39:28;;;;;;;3.90;1.38;;;;;;;-145.68;47.65;72292.72;10447959;28;20214;-74
2023/09/20 16:44:29;;;;;;;2.95;1.20;;;;;;;-145.68;48.86;72298.69;10448546;28;20574;-73
2023/09/20 16:49:29;;;;;;;3.92;1.25;;;;;;;-145.68;50.76;72378.63;10447198;28;20243;-74
2023/09/20 16:54:29;;;;;;;4.40;1.40;;;;;;;-145.68;52.67;72468.56;10447902;28;20644;-74
2023/09/20 16:59:30;;;;;;;2.35;1.13;;;;;;;-145.68;53.55;72494.53;10447161;28;20556;-74
2023/09/20 17:04:33;;;;;;;3.38;1.50;;;;;;;-145.68;54.18;72502.53;10448006;28;20273;-74
2023/09/20 17:09:33;;;;;;;5.30;1.35;;;;;;;-145.68;55.33;72540.50;10446712;28;20273;-74
2023/09/20 17:14:36;;;;;;;3.38;1.80;;;;;;;-145.68;56.86;72584.44;10445496;28;20229;-74
2023/09/20 17:19:37;;;;;;;4.75;2.03;;;;;;;-145.68;57.50;72592.44;10428340;28;20371;-73
2023/09/20 17:24:37;;;;;;;6.05;2.00;;;;;;;-145.68;58.08;72624.41;10447203;28;20194;-74
2023/09/20 17:29:39;;;;;;;5.63;2.20;;;;;;;-145.68;59.34;72660.38;10446350;28;20206;-74
2023/09/20 17:34:40;;;;;;;4.40;1.80;;;;;;;-145.68;60.53;72680.38;10446282;28;20195;-73
2023/09/20 17:39:40;;;;;;;5.32;2.20;;;;;;;-145.68;61.87;72706.34;10428138;28;20192;-73
2023/09/20 17:44:40;;;;;;;3.45;2.13;;;;;;;-145.68;63.16;72730.34;10446765;28;20200;-73
2023/09/20 17:49:41;;;;;;;4.03;1.58;;;;;;;-145.68;64.85;72764.31;10411196;28;21035;-73
2023/09/20 17:54:41;;;;;;;3.40;2.17;;;;;;;-145.68;65.56;72764.31;10445985;28;20199;-74
2023/09/20 17:59:41;;;;;;;3.05;1.88;;;;;;;-145.68;66.56;72784.28;10445665;28;20198;-73
2023/09/20 18:04:44;;;;;;;4.97;1.58;;;;;;;-145.68;67.09;72794.28;10445783;28;20327;-73
2023/09/20 18:09:45;;;;;;;3.67;1.80;;;;;;;-145.68;68.47;72820.25;10441518;28;20199;-73
2023/09/20 18:14:48;;;;;;;4.30;1.95;;;;;;;-145.68;68.99;72832.25;10445714;28;20191;-74
2023/09/20 18:19:48;;;;;;;3.00;2.40;;;;;;;-145.68;70.07;72852.25;10427566;28;20203;-74
2023/09/20 18:24:49;;;;;;;6.53;2.50;;;;;;;-145.68;70.93;72872.22;10445766;28;20683;-73
2023/09/20 18:29:52;;;;;;;5.63;2.45;;;;;;;-145.68;72.23;72880.22;10444762;28;20665;-73
2023/09/20 18:34:52;;;;;;;4.95;2.40;;;;;;;-145.68;73.69;72924.19;10449038;28;20192;-74
2023/09/20 18:39:52;;;;;;;5.03;2.70;;;;;;;-145.68;75.68;72956.16;10452879;28;20195;-74
2023/09/20 18:44:54;;;;;;;5.70;2.60;;;;;;;-145.68;76.73;72968.16;10452572;28;20200;-73
2023/09/20 18:49:55;;;;;;;7.38;2.60;;;;;;;-145.68;77.41;72970.16;10452328;28;20240;-73
2023/09/20 18:54:56;;;;;;;2.72;2.35;;;;;;;-145.68;79.04;72980.13;10434878;28;20207;-73
2023/09/20 18:59:56;;;;;;;5.97;2.40;;;;;;;-145.68;79.39;72986.13;10452228;28;20246;-73
2023/09/20 19:04:58;;;;;;;5.53;2.65;;;;;;;-145.68;80.18;73004.13;10434517;28;20208;-73
2023/09/20 19:09:58;;;;;;;4.75;2.40;;;;;;;-145.68;80.09;72998.13;10451962;28;20603;-73
2023/09/20 19:15:00;;;;;;;4.07;2.15;;;;;;;-145.68;79.24;72998.13;10451488;28;20249;-73
2023/09/20 19:20:01;;;;;;;6.05;3.03;;;;;;;-145.68;79.72;73006.13;10451370;28;20253;-73
2023/09/20 19:25:02;;;;;;;5.20;2.42;;;;;;;-145.68;81.03;73034.09;10451915;28;20199;-73
2023/09/20 19:30:06;;;;;;;4.55;2.30;;;;;;;-145.68;81.49;73044.09;10450479;28;20191;-73
2023/09/20 19:35:07;;;;;;;5.40;2.60;;;;;;;-145.68;81.83;73048.09;10451065;28;20238;-74
2023/09/20 19:40:16;;;;;;;5.78;2.25;;;;;;;-145.68;81.32;73056.09;10433093;28;20216;-73
2023/09/20 19:45:18;;;;;;;3.60;2.38;;;;;;;-145.68;81.04;73056.09;10449029;28;20184;-74
2023/09/20 19:50:19;;;;;;;5.57;2.75;;;;;;;-145.68;79.86;73052.09;10449730;28;20280;-73
2023/09/20 19:55:27;;;;;;;6.38;3.00;;;;;;;-145.68;79.00;73054.09;10450718;28;20283;-73
2023/09/20 20:00:28;;;;;;;2.95;2.38;;;;;;;-145.68;79.11;73052.09;10449439;28;20208;-73
2023/09/20 20:05:28;;;;;;;3.78;2.30;;;;;;;-145.68;78.80;73058.09;10450201;28;20215;-73
2023/09/20 20:10:32;;;;;;;4.70;2.60;;;;;;;-145.68;78.58;73066.09;10449229;28;20283;-73
2023/09/20 20:15:33;;;;;;;7.05;2.75;;;;;;;-145.68;78.95;73078.06;10429879;28;20280;-75
2023/09/20 20:20:33;;;;;;;4.07;2.80;;;;;;;-145.68;78.51;73056.09;10449030;28;20261;-73
2023/09/20 20:25:38;;;;;;;6.20;2.25;;;;;;;-145.68;77.75;73062.09;10449145;28;20211;-73
2023/09/20 20:30:40;;;;;;;4.65;2.20;;;;;;;-145.68;76.07;73044.09;10430533;28;20191;-73
2023/09/20 20:35:40;;;;;;;3.65;2.33;;;;;;;-145.68;75.68;73040.09;10449413;28;20203;-73
2023/09/20 20:40:42;;;;;;;9.05;2.67;;;;;;;-145.68;75.49;73040.09;10447718;28;20223;-73
2023/09/20 20:45:43;;;;;;;2.42;2.08;;;;;;;-145.68;74.88;73034.09;10448669;28;20188;-73
2023/09/20 20:50:44;;;;;;;2.58;2.00;;;;;;;-145.68;74.26;73024.13;10429327;28;20239;-73
2023/09/20 20:55:44;;;;;;;2.92;2.38;;;;;;;-145.68;74.12;73032.09;10447572;28;20206;-73
2023/09/20 21:00:50;;;;;;;8.43;2.50;;;;;;;-145.68;74.90;73044.09;10443276;28;20227;-73
2023/09/20 21:05:50;;;;;;;2.72;2.40;;;;;;;-145.68;76.37;73072.06;10447164;28;20334;-73
2023/09/20 21:10:51;;;;;;;4.88;2.45;;;;;;;-145.68;77.88;73080.06;10445134;28;20192;-73
2023/09/20 21:15:51;;;;;;;4.15;2.20;;;;;;;-145.68;80.40;73128.03;10446741;28;20208;-73
2023/09/20 21:20:55;;;;;;;3.33;2.50;;;;;;;-145.68;80.98;73108.06;10446478;28;20527;-73
2023/09/20 21:25:56;;;;;;;8.73;2.15;;;;;;;-145.68;82.58;73134.03;10446670;28;20204;-73
2023/09/20 21:30:56;;;;;;;3.22;2.20;;;;;;;-145.68;83.58;73120.03;10446481;28;20196;-73
2023/09/20 21:35:56;;;;;;;4.97;2.30;;;;;;;-145.68;84.19;73126.03;10446147;28;20222;-73
2023/09/20 21:40:57;;;;;;;4.10;2.45;;;;;;;-145.68;85.48;73142.03;10445844;28;20230;-73
2023/09/20 21:45:57;;;;;;;4.53;2.40;;;;;;;-145.68;87.05;73150.03;10446517;28;20196;-73
2023/09/20 21:50:58;;;;;;;3.42;2.42;;;;;;;-145.68;88.75;73168.00;10445726;28;20227;-73
2023/09/20 21:55:58;;;;;;;5.82;2.28;;;;;;;-145.68;90.94;73190.00;10445742;28;20249;-73
2023/09/20 22:00:59;;;;;;;2.97;2.13;;;;;;;-145.68;93.42;73231.97;10445374;28;20765;-73
2023/09/20 22:06:00;;;;;;;4.70;2.50;;;;;;;-145.68;95.27;73251.94;10445635;28;20273;-72
2023/09/20 22:11:00;;;;;;;5.65;2.55;;;;;;;-145.68;98.88;73269.94;10451455;28;20249;-75
2023/09/20 22:16:01;;;;;;;6.00;2.47;;;;;;;-145.68;100.00;73283.94;10453884;28;20199;-75
2023/09/20 22:21:08;;;;;;;5.20;2.60;;;;;;;-145.68;100.00;73289.94;10453569;28;20262;-72
2023/09/20 22:26:11;;;;;;;3.40;2.47;;;;;;;-145.68;100.00;73309.91;10453508;28;20188;-75
2023/09/20 22:31:20;;;;;;;6.75;2.90;;;;;;;-145.68;100.00;73315.91;10453082;28;20192;-75
2023/09/20 22:36:20;;;;;;;3.30;2.28;;;;;;;-145.68;100.00;73315.91;10453274;28;20265;-72
2023/09/20 22:41:21;;;;;;;5.05;2.50;;;;;;;-145.68;100.00;73349.88;10434296;28;20289;-75
2023/09/20 22:46:21;;;;;;;3.28;2.47;;;;;;;-145.68;100.00;73351.88;10452741;28;20192;-75
2023/09/20 22:51:22;;;;;;;6.80;2.97;;;;;;;-145.68;100.00;73361.88;10411610;28;20251;-75
2023/09/20 22:56:22;;;;;;;3.33;2.60;;;;;;;-145.68;100.00;73357.88;10410041;28;20192;-75
2023/09/20 23:01:23;;;;;;;3.45;2.55;;;;;;;-145.68;100.00;73359.88;10411041;28;20231;-75
2023/09/20 23:06:24;;;;;;;7.72;2.80;;;;;;;-145.68;100.00;73349.88;10410958;28;20203;-73
2023/09/20 23:11:32;;;;;;;5.68;3.10;;;;;;;-145.68;100.00;73345.88;10409913;28;20564;-73
2023/09/20 23:16:33;;;;;;;8.57;2.97;;;;;;;-145.68;100.00;73365.88;10410926;28;20680;-73
2023/09/20 23:21:34;;;;;;;3.53;2.45;;;;;;;-145.68;100.00;73385.88;10409209;28;20227;-73
2023/09/20 23:26:36;;;;;;;4.72;2.33;;;;;;;-145.68;100.00;73387.88;10410240;28;20798;-73